createdAt,value
2018-12-30T00:02:26.030Z,99263.81
2018-12-30T00:04:58.515Z,99256.95
2018-12-30T00:07:30.938Z,99250.14
2018-12-30T00:10:03.577Z,99254.58
2018-12-30T00:12:35.649Z,99249.11
2018-12-30T00:15:07.644Z,99259.22
2018-12-30T00:17:39.671Z,99277.43
2018-12-30T00:20:11.695Z,99282.86
2018-12-30T00:22:43.722Z,99279.39
2018-12-30T00:25:15.789Z,99288.06
2018-12-30T00:27:47.797Z,99292.97
2018-12-30T00:30:19.837Z,99277.95
2018-12-30T00:32:51.827Z,99268.58
2018-12-30T00:35:23.844Z,99244.47
2018-12-30T00:37:55.811Z,99248.31
2018-12-30T00:40:27.925Z,99233.20
2018-12-30T00:42:59.921Z,99220.76
2018-12-30T00:45:31.925Z,99221.72
2018-12-30T00:48:03.900Z,99227.52
2018-12-30T00:50:35.911Z,99235.72
2018-12-30T00:53:07.923Z,99231.85
2018-12-30T00:55:39.926Z,99232.55
2018-12-30T00:58:11.913Z,99229.59
2018-12-30T01:00:43.931Z,99223.83
2018-12-30T01:03:15.955Z,99233.94
2018-12-30T01:05:48.037Z,99230.25
2018-12-30T01:08:20.040Z,99229.91
2018-12-30T01:10:52.049Z,99226.58
2018-12-30T01:13:24.432Z,99230.55
2018-12-30T01:15:56.586Z,99234.11
2018-12-30T01:18:28.548Z,99229.93
2018-12-30T01:21:00.538Z,99232.27
2018-12-30T01:23:32.538Z,99237.46
2018-12-30T01:26:04.536Z,99239.84
2018-12-30T01:28:36.540Z,99240.11
2018-12-30T01:31:08.539Z,99247.25
2018-12-30T01:33:40.544Z,99255.83
2018-12-30T01:36:12.952Z,99265.52
2018-12-30T01:38:44.908Z,99270.14
2018-12-30T01:41:16.926Z,99271.22
2018-12-30T01:43:48.907Z,99276.13
2018-12-30T01:46:21.109Z,99277.55
2018-12-30T01:48:53.090Z,99276.13
2018-12-30T01:51:32.821Z,99275.52
2018-12-30T01:53:59.587Z,99273.48
2018-12-30T01:56:31.792Z,99276.02
2018-12-30T01:59:03.822Z,99272.56
2018-12-30T02:01:35.840Z,99278.55
2018-12-30T02:04:07.818Z,99266.56
2018-12-30T02:06:39.834Z,99272.56
2018-12-30T02:09:11.831Z,99271.62
2018-12-30T02:11:43.800Z,99286.55
2018-12-30T02:14:15.791Z,99281.79
2018-12-30T02:16:47.748Z,99282.30
2018-12-30T02:19:19.748Z,99289.50
2018-12-30T02:21:51.716Z,99293.83
2018-12-30T02:24:23.703Z,99294.08
2018-12-30T02:26:55.699Z,99301.79
2018-12-30T02:29:27.684Z,99304.27
2018-12-30T02:31:59.635Z,99300.96
2018-12-30T02:34:31.629Z,99297.63
2018-12-30T02:37:03.579Z,99296.80
2018-12-30T02:39:35.812Z,99289.72
2018-12-30T02:42:07.769Z,99291.10
2018-12-30T02:44:39.741Z,99292.48
2018-12-30T02:47:11.747Z,99290.53
2018-12-30T02:49:43.782Z,99288.48
2018-12-30T02:52:15.814Z,99290.27
2018-12-30T02:54:47.795Z,99295.65
2018-12-30T02:57:19.747Z,99290.69
2018-12-30T02:59:51.758Z,99291.33
2018-12-30T03:02:23.732Z,99285.69
2018-12-30T03:04:55.721Z,99290.27
2018-12-30T03:07:27.739Z,99287.11
2018-12-30T03:09:59.743Z,99287.11
2018-12-30T03:12:31.718Z,99285.54
2018-12-30T03:15:03.897Z,99287.23
2018-12-30T03:17:35.841Z,99292.27
2018-12-30T03:20:07.822Z,99288.76
2018-12-30T03:22:39.811Z,99293.90
2018-12-30T03:25:11.815Z,99295.65
2018-12-30T03:27:43.781Z,99288.38
2018-12-30T03:30:15.806Z,99292.47
2018-12-30T03:32:47.754Z,99291.02
2018-12-30T03:35:19.701Z,99290.78
2018-12-30T03:37:51.718Z,99292.05
2018-12-30T03:40:23.665Z,99289.21
2018-12-30T03:42:55.673Z,99290.65
2018-12-30T03:45:27.682Z,99288.20
2018-12-30T03:47:59.677Z,99286.00
2018-12-30T03:50:31.647Z,99290.96
2018-12-30T03:53:03.679Z,99275.14
2018-12-30T03:55:35.786Z,99271.28
2018-12-30T03:58:07.781Z,99277.79
2018-12-30T04:00:39.744Z,99281.41
2018-12-30T04:03:11.726Z,99293.55
2018-12-30T04:05:43.713Z,99288.02
2018-12-30T04:08:15.745Z,99291.72
2018-12-30T04:10:47.705Z,99298.80
2018-12-30T04:13:19.682Z,99290.41
2018-12-30T04:15:51.621Z,99300.83
2018-12-30T04:18:23.606Z,99303.22
2018-12-30T04:20:55.561Z,99300.02
2018-12-30T04:23:27.722Z,99305.86
2018-12-30T04:25:59.712Z,99306.58
2018-12-30T04:28:31.770Z,99319.17
2018-12-30T04:31:03.757Z,99325.31
2018-12-30T04:33:35.719Z,99323.38
2018-12-30T04:36:07.740Z,99329.45
2018-12-30T04:38:39.725Z,99321.51
2018-12-30T04:41:11.718Z,99334.27
2018-12-30T04:43:43.665Z,99328.57
2018-12-30T04:46:15.647Z,99318.22
2018-12-30T04:48:47.622Z,99321.91
2018-12-30T04:51:19.613Z,99340.27
2018-12-30T04:53:51.587Z,99334.75
2018-12-30T04:56:23.579Z,99342.23
2018-12-30T04:58:55.521Z,99339.91
2018-12-30T05:01:27.512Z,99347.36
2018-12-30T05:03:59.484Z,99346.18
2018-12-30T05:06:31.515Z,99345.58
2018-12-30T05:09:05.824Z,99350.09
2018-12-30T05:11:37.861Z,99355.20
2018-12-30T05:14:09.843Z,99354.52
2018-12-30T05:16:41.830Z,99361.49
2018-12-30T05:19:13.816Z,99364.27
2018-12-30T05:21:45.813Z,99367.84
2018-12-30T05:24:17.815Z,99368.25
2018-12-30T05:26:49.791Z,99367.94
2018-12-30T05:29:21.750Z,99379.54
2018-12-30T05:31:53.743Z,99373.63
2018-12-30T05:34:25.708Z,99380.92
2018-12-30T05:36:57.693Z,99387.77
2018-12-30T05:39:29.662Z,99382.77
2018-12-30T05:42:01.623Z,99382.31
2018-12-30T05:44:33.617Z,99387.14
2018-12-30T05:47:07.031Z,99397.45
2018-12-30T05:49:39.141Z,99403.67
2018-12-30T05:52:11.103Z,99409.86
2018-12-30T05:54:43.082Z,99405.46
2018-12-30T05:57:15.065Z,99415.44
2018-12-30T05:59:47.065Z,99427.47
2018-12-30T06:02:19.433Z,99425.89
2018-12-30T06:04:51.406Z,99422.92
2018-12-30T06:07:23.488Z,99431.02
2018-12-30T06:09:55.491Z,99438.44
2018-12-30T06:12:27.460Z,99432.86
2018-12-30T06:14:59.689Z,99443.11
2018-12-30T06:17:31.682Z,99441.09
2018-12-30T06:20:03.948Z,99443.56
2018-12-30T06:22:35.899Z,99449.59
2018-12-30T06:25:07.902Z,99461.66
2018-12-30T06:27:39.859Z,99458.57
2018-12-30T06:30:11.848Z,99451.34
2018-12-30T06:32:43.825Z,99465.54
2018-12-30T06:35:15.812Z,99474.14
2018-12-30T06:37:47.787Z,99474.53
2018-12-30T06:40:19.795Z,99473.63
2018-12-30T06:42:51.776Z,99483.66
2018-12-30T06:45:23.738Z,99479.28
2018-12-30T06:47:55.700Z,99488.29
2018-12-30T06:50:27.743Z,99492.66
2018-12-30T06:52:59.732Z,99498.28
2018-12-30T06:55:31.737Z,99495.20
2018-12-30T06:58:03.692Z,99498.42
2018-12-30T07:00:35.678Z,99508.24
2018-12-30T07:03:07.676Z,99499.67
2018-12-30T07:05:39.656Z,99499.69
2018-12-30T07:08:11.661Z,99512.16
2018-12-30T07:10:43.637Z,99512.16
2018-12-30T07:13:15.635Z,99511.98
2018-12-30T07:15:47.603Z,99525.61
2018-12-30T07:18:19.598Z,99520.98
2018-12-30T07:20:51.588Z,99530.54
2018-12-30T07:23:23.683Z,99530.59
2018-12-30T07:25:55.677Z,99528.81
2018-12-30T07:28:27.672Z,99536.87
2018-12-30T07:30:59.686Z,99541.38
2018-12-30T07:33:31.689Z,99553.84
2018-12-30T07:36:03.655Z,99552.09
2018-12-30T07:38:35.643Z,99558.62
2018-12-30T07:41:07.675Z,99564.95
2018-12-30T07:43:39.703Z,99572.16
2018-12-30T07:46:11.670Z,99577.98
2018-12-30T07:48:43.648Z,99576.11
2018-12-30T07:51:15.624Z,99580.09
2018-12-30T07:53:47.641Z,99575.20
2018-12-30T07:56:19.620Z,99573.13
2018-12-30T07:58:51.637Z,99573.43
2018-12-30T08:01:23.597Z,99579.20
2018-12-30T08:03:55.589Z,99588.77
2018-12-30T08:06:27.590Z,99588.77
2018-12-30T08:08:59.603Z,99589.80
2018-12-30T08:11:31.571Z,99586.17
2018-12-30T08:14:03.547Z,99596.13
2018-12-30T08:16:35.560Z,99594.94
2018-12-30T08:19:07.570Z,99591.88
2018-12-30T08:21:39.576Z,99594.92
2018-12-30T08:24:11.594Z,99589.98
2018-12-30T08:26:43.579Z,99588.58
2018-12-30T08:29:15.837Z,99593.28
2018-12-30T08:31:47.830Z,99595.24
2018-12-30T08:34:19.842Z,99596.71
2018-12-30T08:36:51.883Z,99599.88
2018-12-30T08:39:23.880Z,99599.80
2018-12-30T08:41:55.907Z,99606.02
2018-12-30T08:44:27.893Z,99606.59
2018-12-30T08:46:59.963Z,99604.23
2018-12-30T08:49:31.987Z,99601.27
2018-12-30T08:52:04.010Z,99604.06
2018-12-30T08:54:35.991Z,99603.60
2018-12-30T08:57:08.032Z,99612.16
2018-12-30T08:59:40.044Z,99613.23
2018-12-30T09:02:12.049Z,99607.84
2018-12-30T09:04:44.054Z,99622.83
2018-12-30T09:07:16.101Z,99610.64
2018-12-30T09:09:48.108Z,99625.59
2018-12-30T09:12:20.116Z,99634.42
2018-12-30T09:14:52.116Z,99635.86
2018-12-30T09:17:24.125Z,99637.07
2018-12-30T09:19:56.125Z,99639.23
2018-12-30T09:22:28.159Z,99648.29
2018-12-30T09:25:00.170Z,99655.62
2018-12-30T09:27:32.176Z,99659.94
2018-12-30T09:30:05.008Z,99671.53
2018-12-30T09:32:37.029Z,99674.08
2018-12-30T09:35:09.136Z,99676.17
2018-12-30T09:37:41.204Z,99670.70
2018-12-30T09:40:13.313Z,99669.62
2018-12-30T09:42:46.583Z,99673.10
2018-12-30T09:45:18.616Z,99674.48
2018-12-30T09:47:50.715Z,99680.92
2018-12-30T09:50:22.738Z,99680.30
2018-12-30T09:52:54.738Z,99684.28
2018-12-30T09:55:26.764Z,99686.02
2018-12-30T09:57:58.768Z,99689.77
2018-12-30T10:00:31.110Z,99704.86
2018-12-30T10:03:03.483Z,99697.76
2018-12-30T10:05:35.457Z,99703.59
2018-12-30T10:08:07.487Z,99704.47
2018-12-30T10:10:39.530Z,99700.23
2018-12-30T10:13:11.590Z,99705.25
2018-12-30T10:15:43.637Z,99702.09
2018-12-30T10:18:15.620Z,99704.84
2018-12-30T10:20:47.637Z,99701.62
2018-12-30T10:23:19.657Z,99703.82
2018-12-30T10:25:51.695Z,99710.61
2018-12-30T10:28:23.724Z,99703.64
2018-12-30T10:30:55.740Z,99709.61
2018-12-30T10:33:27.778Z,99706.48
2018-12-30T10:35:59.819Z,99709.17
2018-12-30T10:38:31.838Z,99703.61
2018-12-30T10:41:03.969Z,99705.16
2018-12-30T10:43:36.029Z,99702.03
2018-12-30T10:46:08.049Z,99700.83
2018-12-30T10:48:40.078Z,99700.77
2018-12-30T10:51:12.110Z,99698.41
2018-12-30T10:53:44.197Z,99701.01
2018-12-30T10:56:16.258Z,99708.00
2018-12-30T10:58:48.294Z,99699.91
2018-12-30T11:01:20.381Z,99697.53
2018-12-30T11:03:52.357Z,99702.30
2018-12-30T11:06:24.432Z,99711.68
2018-12-30T11:08:56.459Z,99720.81
2018-12-30T11:11:28.489Z,99706.20
2018-12-30T11:14:00.528Z,99703.11
2018-12-30T11:16:32.551Z,99688.06
2018-12-30T11:19:04.607Z,99689.13
2018-12-30T11:21:36.671Z,99690.26
2018-12-30T11:24:09.011Z,99688.09
2018-12-30T11:26:41.642Z,99694.17
2018-12-30T11:29:13.694Z,99685.83
2018-12-30T11:31:45.723Z,99674.24
2018-12-30T11:34:17.732Z,99667.58
2018-12-30T11:36:49.747Z,99661.02
2018-12-30T11:39:21.797Z,99657.81
2018-12-30T11:41:54.852Z,99656.84
2018-12-30T11:44:26.971Z,99659.50
2018-12-30T11:46:59.048Z,99660.77
2018-12-30T11:49:31.091Z,99661.53
2018-12-30T11:52:03.229Z,99658.49
2018-12-30T11:54:35.535Z,99662.38
2018-12-30T11:57:07.561Z,99658.70
2018-12-30T11:59:39.643Z,99661.83
2018-12-30T12:02:11.714Z,99659.84
2018-12-30T12:04:43.805Z,99668.00
2018-12-30T12:07:15.904Z,99673.77
2018-12-30T12:09:48.057Z,99677.09
2018-12-30T12:12:20.122Z,99681.89
2018-12-30T12:14:52.190Z,99680.50
2018-12-30T12:17:24.180Z,99682.59
2018-12-30T12:19:56.265Z,99682.53
2018-12-30T12:22:28.279Z,99681.16
2018-12-30T12:25:00.399Z,99684.08
2018-12-30T12:27:32.435Z,99688.78
2018-12-30T12:30:06.224Z,99690.26
2018-12-30T12:32:38.301Z,99690.91
2018-12-30T12:35:10.414Z,99692.88
2018-12-30T12:37:42.453Z,99685.28
2018-12-30T12:40:14.527Z,99687.70
2018-12-30T12:42:46.561Z,99688.13
2018-12-30T12:45:18.657Z,99682.73
2018-12-30T12:47:50.766Z,99688.98
2018-12-30T12:50:22.781Z,99680.19
2018-12-30T12:52:54.830Z,99682.59
2018-12-30T12:55:26.950Z,99665.63
2018-12-30T12:57:58.979Z,99671.22
2018-12-30T13:00:31.035Z,99676.45
2018-12-30T13:03:03.149Z,99661.41
2018-12-30T13:05:35.238Z,99668.90
2018-12-30T13:08:07.257Z,99671.60
2018-12-30T13:10:39.298Z,99675.96
2018-12-30T13:13:11.402Z,99674.92
2018-12-30T13:15:43.660Z,99670.64
2018-12-30T13:18:15.676Z,99675.11
2018-12-30T13:20:47.699Z,99682.72
2018-12-30T13:23:19.798Z,99689.95
2018-12-30T13:25:51.834Z,99690.91
2018-12-30T13:28:23.999Z,99691.80
2018-12-30T13:30:56.022Z,99687.72
2018-12-30T13:33:28.071Z,99699.50
2018-12-30T13:36:00.088Z,99694.55
2018-12-30T13:38:32.142Z,99698.27
2018-12-30T13:41:04.155Z,99700.59
2018-12-30T13:43:36.208Z,99703.05
2018-12-30T13:46:08.267Z,99695.73
2018-12-30T13:48:40.325Z,99700.45
2018-12-30T13:51:12.408Z,99708.98
2018-12-30T13:53:44.567Z,99708.30
2018-12-30T13:56:16.614Z,99697.06
2018-12-30T13:58:48.679Z,99684.80
2018-12-30T14:01:20.702Z,99689.75
2018-12-30T14:03:53.012Z,99691.22
2018-12-30T14:06:25.063Z,99688.78
2018-12-30T14:08:57.134Z,99692.28
2018-12-30T14:11:29.227Z,99704.99
2018-12-30T14:14:01.259Z,99710.83
2018-12-30T14:16:33.360Z,99714.95
2018-12-30T14:19:05.391Z,99713.13
2018-12-30T14:21:37.459Z,99711.28
2018-12-30T14:24:09.437Z,99714.75
2018-12-30T14:26:41.496Z,99723.47
2018-12-30T14:29:13.501Z,99726.49
2018-12-30T14:31:45.614Z,99722.48
2018-12-30T14:34:17.627Z,99721.17
2018-12-30T14:36:49.699Z,99714.23
2018-12-30T14:39:21.807Z,99707.88
2018-12-30T14:41:53.930Z,99707.02
2018-12-30T14:44:26.012Z,99704.17
2018-12-30T14:46:58.133Z,99697.72
2018-12-30T14:49:30.335Z,99695.41
2018-12-30T14:52:02.375Z,99701.94
2018-12-30T14:54:34.416Z,99693.87
2018-12-30T14:57:06.515Z,99695.41
2018-12-30T14:59:38.600Z,99701.77
2018-12-30T15:02:10.662Z,99702.52
2018-12-30T15:04:42.677Z,99708.97
2018-12-30T15:07:14.767Z,99712.98
2018-12-30T15:09:46.865Z,99713.44
2018-12-30T15:12:18.910Z,99713.16
2018-12-30T15:14:50.969Z,99710.76
2018-12-30T15:17:23.122Z,99718.79
2018-12-30T15:19:55.209Z,99726.95
2018-12-30T15:22:27.265Z,99733.05
2018-12-30T15:24:59.308Z,99740.09
2018-12-30T15:27:31.386Z,99729.55
2018-12-30T15:30:04.499Z,99737.75
2018-12-30T15:32:36.537Z,99735.13
2018-12-30T15:35:08.546Z,99729.75
2018-12-30T15:37:40.588Z,99728.08
2018-12-30T15:40:12.623Z,99722.72
2018-12-30T15:42:44.727Z,99724.42
2018-12-30T15:45:16.784Z,99723.53
2018-12-30T15:47:48.830Z,99712.48
2018-12-30T15:50:20.855Z,99706.45
2018-12-30T15:52:52.928Z,99707.29
2018-12-30T15:55:24.937Z,99705.06
2018-12-30T15:57:57.052Z,99705.84
2018-12-30T16:00:29.129Z,99707.09
2018-12-30T16:03:01.188Z,99711.52
2018-12-30T16:05:33.315Z,99722.84
2018-12-30T16:08:05.357Z,99721.95
2018-12-30T16:10:37.425Z,99734.59
2018-12-30T16:13:09.488Z,99737.84
2018-12-30T16:15:41.724Z,99742.52
2018-12-30T16:18:13.843Z,99739.61
2018-12-30T16:20:45.929Z,99734.78
2018-12-30T16:23:17.956Z,99737.01
2018-12-30T16:25:50.178Z,99737.01
2018-12-30T16:28:22.246Z,99740.56
2018-12-30T16:30:54.326Z,99744.23
2018-12-30T16:33:26.380Z,99744.31
2018-12-30T16:35:58.400Z,99748.44
2018-12-30T16:38:30.443Z,99746.22
2018-12-30T16:41:02.517Z,99743.88
2018-12-30T16:43:34.579Z,99741.57
2018-12-30T16:46:06.689Z,99733.27
2018-12-30T16:48:38.746Z,99722.30
2018-12-30T16:51:10.827Z,99733.95
2018-12-30T16:53:42.880Z,99731.12
2018-12-30T16:56:14.932Z,99728.06
2018-12-30T16:58:46.967Z,99719.98
2018-12-30T17:01:19.025Z,99716.50
2018-12-30T17:03:51.068Z,99715.84
2018-12-30T17:06:23.144Z,99711.51
2018-12-30T17:08:55.187Z,99716.19
2018-12-30T17:11:27.204Z,99714.16
2018-12-30T17:13:59.289Z,99724.31
2018-12-30T17:16:31.307Z,99729.28
2018-12-30T17:19:03.430Z,99726.05
2018-12-30T17:21:35.465Z,99726.22
2018-12-30T17:24:07.489Z,99727.55
2018-12-30T17:26:39.516Z,99728.96
2018-12-30T17:29:11.594Z,99721.14
2018-12-30T17:31:43.607Z,99721.20
2018-12-30T17:34:15.651Z,99726.73
2018-12-30T17:36:47.665Z,99733.52
2018-12-30T17:39:19.691Z,99745.66
2018-12-30T17:41:51.735Z,99752.01
2018-12-30T17:44:23.766Z,99752.19
2018-12-30T17:46:55.828Z,99753.20
2018-12-30T17:49:27.896Z,99752.88
2018-12-30T17:51:59.882Z,99746.91
2018-12-30T17:54:31.954Z,99748.69
2018-12-30T17:57:03.950Z,99750.22
2018-12-30T17:59:36.043Z,99756.05
2018-12-30T18:02:08.031Z,99748.84
2018-12-30T18:04:40.096Z,99756.74
2018-12-30T18:07:12.176Z,99747.63
2018-12-30T18:09:44.239Z,99743.30
2018-12-30T18:12:16.295Z,99757.08
2018-12-30T18:14:48.333Z,99757.77
2018-12-30T18:17:20.390Z,99759.03
2018-12-30T18:19:52.649Z,99755.92
2018-12-30T18:22:24.695Z,99752.64
2018-12-30T18:24:56.707Z,99751.05
2018-12-30T18:27:28.767Z,99747.88
2018-12-30T18:30:00.830Z,99746.49
2018-12-30T18:32:32.944Z,99755.38
2018-12-30T18:35:04.973Z,99777.38
2018-12-30T18:37:37.042Z,99765.81
2018-12-30T18:40:09.140Z,99779.59
2018-12-30T18:42:41.193Z,99770.16
2018-12-30T18:45:13.199Z,99763.26
2018-12-30T18:47:45.246Z,99748.78
2018-12-30T18:50:17.290Z,99746.60
2018-12-30T18:52:49.352Z,99756.00
2018-12-30T18:55:21.413Z,99770.16
2018-12-30T18:57:53.507Z,99766.17
2018-12-30T19:00:25.620Z,99766.55
2018-12-30T19:02:57.742Z,99778.48
2018-12-30T19:05:29.811Z,99785.06
2018-12-30T19:08:03.669Z,99786.09
2018-12-30T19:10:35.869Z,99787.37
2018-12-30T19:13:07.940Z,99774.30
2018-12-30T19:15:40.072Z,99772.69
2018-12-30T19:18:12.151Z,99777.45
2018-12-30T19:21:03.654Z,99773.27
2018-12-30T19:23:35.709Z,99772.35
2018-12-30T19:26:14.305Z,99768.77
2018-12-30T19:28:41.722Z,99769.53
2018-12-30T19:31:21.162Z,99763.36
2018-12-30T19:33:53.259Z,99761.22
2018-12-30T19:36:25.325Z,99770.84
2018-12-30T19:38:57.413Z,99762.14
2018-12-30T19:44:11.551Z,99756.00
2018-12-30T19:46:43.626Z,99754.55
2018-12-30T19:49:15.716Z,99752.25
2018-12-30T19:51:47.774Z,99753.52
2018-12-30T19:54:19.834Z,99758.78
2018-12-30T19:56:51.938Z,99752.64
2018-12-30T19:59:24.023Z,99752.49
2018-12-30T20:01:56.136Z,99749.78
2018-12-30T20:04:28.256Z,99754.70
2018-12-30T20:07:00.320Z,99761.05
2018-12-30T20:09:32.317Z,99763.78
2018-12-30T20:12:04.363Z,99765.94
2018-12-30T20:14:36.402Z,99760.02
2018-12-30T20:17:08.489Z,99754.40
2018-12-30T20:19:40.511Z,99750.92
2018-12-30T20:22:12.553Z,99752.61
2018-12-30T20:24:44.571Z,99762.56
2018-12-30T20:27:16.901Z,99768.91
2018-12-30T20:29:48.973Z,99755.34
2018-12-30T20:32:21.072Z,99747.59
2018-12-30T20:34:53.094Z,99743.03
2018-12-30T20:37:25.160Z,99737.27
2018-12-30T20:39:57.162Z,99734.92
2018-12-30T20:42:29.179Z,99741.11
2018-12-30T20:45:01.225Z,99732.06
2018-12-30T20:47:33.298Z,99726.47
2018-12-30T20:50:05.592Z,99724.68
2018-12-30T20:52:37.720Z,99727.22
2018-12-30T20:55:09.785Z,99725.02
2018-12-30T20:57:41.954Z,99722.86
2018-12-30T21:00:15.472Z,99722.91
2018-12-30T21:02:48.259Z,99718.73
2018-12-30T21:05:20.401Z,99727.60
2018-12-30T21:07:52.493Z,99726.34
2018-12-30T21:10:24.567Z,99725.27
2018-12-30T21:12:56.679Z,99722.58
2018-12-30T21:15:28.701Z,99723.91
2018-12-30T21:18:00.798Z,99720.48
2018-12-30T21:20:32.858Z,99719.16
2018-12-30T21:23:04.961Z,99716.48
2018-12-30T21:25:36.991Z,99715.73
2018-12-30T21:28:09.055Z,99715.17
2018-12-30T21:30:41.071Z,99717.00
2018-12-30T21:33:13.130Z,99715.22
2018-12-30T21:35:45.183Z,99718.83
2018-12-30T21:38:17.198Z,99710.67
2018-12-30T21:40:49.252Z,99715.03
2018-12-30T21:43:21.263Z,99712.69
2018-12-30T21:45:53.332Z,99701.47
2018-12-30T21:48:25.357Z,99705.27
2018-12-30T21:50:57.432Z,99707.80
2018-12-30T21:53:29.474Z,99704.75
2018-12-30T21:56:01.554Z,99698.41
2018-12-30T21:58:33.575Z,99692.97
2018-12-30T22:01:05.643Z,99696.59
2018-12-30T22:03:37.795Z,99696.27
2018-12-30T22:06:09.915Z,99705.14
2018-12-30T22:08:41.945Z,99699.73
2018-12-30T22:11:13.970Z,99693.59
2018-12-30T22:13:45.992Z,99691.62
2018-12-30T22:16:18.067Z,99694.16
2018-12-30T22:18:50.087Z,99695.80
2018-12-30T22:21:22.120Z,99691.62
2018-12-30T22:23:54.154Z,99690.72
2018-12-30T22:26:26.220Z,99695.23
2018-12-30T22:28:58.268Z,99690.87
2018-12-30T22:31:30.319Z,99690.16
2018-12-30T22:34:02.351Z,99687.39
2018-12-30T22:36:34.392Z,99684.86
2018-12-30T22:39:06.631Z,99686.35
2018-12-30T22:41:38.710Z,99684.66
2018-12-30T22:44:10.728Z,99681.98
2018-12-30T22:46:42.786Z,99683.45
2018-12-30T22:49:14.789Z,99686.37
2018-12-30T22:51:46.896Z,99688.01
2018-12-30T22:54:18.930Z,99683.82
2018-12-30T22:56:51.001Z,99680.21
2018-12-30T22:59:23.038Z,99681.28
2018-12-30T23:01:55.096Z,99681.48
2018-12-30T23:04:27.150Z,99679.27
2018-12-30T23:09:37.156Z,99676.08
2018-12-30T23:12:09.174Z,99684.44
2018-12-30T23:14:43.921Z,99672.80
2018-12-30T23:17:16.024Z,99677.34
2018-12-30T23:19:48.098Z,99681.28
2018-12-30T23:22:20.183Z,99672.18
2018-12-30T23:24:52.223Z,99678.00
2018-12-30T23:27:24.315Z,99672.09
2018-12-30T23:29:56.340Z,99675.97
2018-12-30T23:32:28.373Z,99676.21
2018-12-30T23:35:00.421Z,99680.16
2018-12-30T23:37:32.486Z,99688.98
2018-12-30T23:40:04.518Z,99688.66
2018-12-30T23:42:36.565Z,99679.27
2018-12-30T23:45:08.569Z,99679.79
2018-12-30T23:47:40.571Z,99682.65
2018-12-30T23:50:12.591Z,99682.13
2018-12-30T23:52:44.619Z,99687.00
2018-12-30T23:55:16.651Z,99689.54
2018-12-30T23:57:48.713Z,99686.81
